Terminal Aerodrome Forecast
Issued by NWS Green Bay, WI

Home | Current Version | Previous Version | Graphics & Text | Print | Product List | Glossary Off
Versions: 1 2 3 4 5 6 7 8 9 10 11 12 13 14 15 16 17 18 19 20 21 22 23 24

000
FTUS43 KGRB 201740
TAFGRB
TAF
KGRB 201740Z 2018/2118 20011G18KT P6SM SKC
     FM210100 18007KT P6SM FEW250 WS020/20035KT
     FM211300 18007G16KT P6SM BKN250
     FM211500 18011G20KT P6SM BKN150=

USA.gov is the U.S. government's official web portal to all federal, state and local government web resources and services.